Aérodrome :
LOGIN :

S'inscrire | Disclaimer

   EN    FR    IT 

 










Légende :    VFR   VFR Marginal   IFR   IFR Intensif   IFR Très Intensif
Visi : 
Plafond : 
>= 8 km
>= 3000ft
5 à 8 km
1000 à 3000 ft
1500m à 5 km
500 à 1000 ft
800 à 1500m
200 à 500 ft
< 800m
< 200 ft
Symboles :   Orages  Brouillard  Fortes neiges  Fortes précipitations  Vent > 20 kt
SIGMETs :   Divers  Orages  Givrage  Turbulence  Onde Orograph.  Cendres Volcan.






- Altitude de l'aérodrome : 195 ft


LFMY - Salon de Provence

DERNIER METAR :
  • 232000Z AUTO 23002KT CAVOK 24/15 Q1016

METARs EXPIRÉS :
  • 231930Z AUTO 22005KT CAVOK 24/15 Q1016
  • 231900Z AUTO 24005KT 200V270 CAVOK 25/14 Q1015
  • 231830Z AUTO 27005KT 220V310 CAVOK 25/13 Q1015
  • 231800Z AUTO 26005KT 220V310 CAVOK 26/12 Q1015
  • 231730Z AUTO 26007KT 220V280 CAVOK 27/13 Q1015

TAF TAF LFMY
Valide du 23 à 15h jusqu'au 24 à 15h UTC


231400Z 2315/2415 21012KT CAVOK TX28/2315Z TN16/2404Z
TEMPO 2315/2318 SHRA SCT060TCU
PROB30
TEMPO 2315/2319 TSRA SCT050CB
BECMG 2319/2321 VRB02KT



MET'MAP, la Météo Aéronautique d'un coup d'oeil ! - Copyright ORBIFLY Décembre 2007 - Disclaimer

ORBIFLY MET'MAP TEAM :

Programmation & Développement : Alexandra Zaïnal
Sur une idée originale de : Baudouin d'Aumeries
Assistance à la programmation : Marc-Olivier Méhu
Soutien technique & logistique : Manuel Goepfert

Contact : metmap@orbifly.com




SOURCES & CREDITS :

   NOAA